sensor_id;sensor_type;location;lat;lon;timestamp;temperature;humidity
17815;DHT22;9031;50.974;11.330;2023-12-20T00:01:31;5.60;99.90
17815;DHT22;9031;50.974;11.330;2023-12-20T00:03:57;5.50;99.90
17815;DHT22;9031;50.974;11.330;2023-12-20T00:06:22;5.60;99.90
17815;DHT22;9031;50.974;11.330;2023-12-20T00:08:48;5.60;99.90
17815;DHT22;9031;50.974;11.330;2023-12-20T00:11:13;5.60;99.90
17815;DHT22;9031;50.974;11.330;2023-12-20T00:13:39;5.60;99.90
17815;DHT22;9031;50.974;11.330;2023-12-20T00:16:04;5.70;99.90
17815;DHT22;9031;50.974;11.330;2023-12-20T00:18:30;5.80;99.90
17815;DHT22;9031;50.974;11.330;2023-12-20T00:20:55;5.80;99.90
17815;DHT22;9031;50.974;11.330;2023-12-20T00:23:21;5.70;99.90
17815;DHT22;9031;50.974;11.330;2023-12-20T00:25:48;5.60;99.90
17815;DHT22;9031;50.974;11.330;2023-12-20T00:28:14;5.60;99.90
17815;DHT22;9031;50.974;11.330;2023-12-20T00:30:39;5.60;99.90
17815;DHT22;9031;50.974;11.330;2023-12-20T00:33:05;5.60;99.90
17815;DHT22;9031;50.974;11.330;2023-12-20T00:35:30;5.60;99.90
17815;DHT22;9031;50.974;11.330;2023-12-20T00:37:56;5.60;99.90
17815;DHT22;9031;50.974;11.330;2023-12-20T00:40:21;5.60;99.90
17815;DHT22;9031;50.974;11.330;2023-12-20T00:42:47;5.70;99.90
17815;DHT22;9031;50.974;11.330;2023-12-20T00:45:13;5.70;99.90
17815;DHT22;9031;50.974;11.330;2023-12-20T00:47:40;5.70;99.90
17815;DHT22;9031;50.974;11.330;2023-12-20T00:50:06;5.70;99.90
17815;DHT22;9031;50.974;11.330;2023-12-20T00:52:31;5.70;99.90
17815;DHT22;9031;50.974;11.330;2023-12-20T00:54:57;5.70;99.90
17815;DHT22;9031;50.974;11.330;2023-12-20T00:57:22;5.80;99.90
17815;DHT22;9031;50.974;11.330;2023-12-20T00:59:48;5.70;99.90
17815;DHT22;9031;50.974;11.330;2023-12-20T01:02:14;5.70;99.90
17815;DHT22;9031;50.974;11.330;2023-12-20T01:04:39;5.70;99.90
17815;DHT22;9031;50.974;11.330;2023-12-20T01:07:05;5.60;99.90
17815;DHT22;9031;50.974;11.330;2023-12-20T01:09:30;5.60;99.90
17815;DHT22;9031;50.974;11.330;2023-12-20T01:11:56;5.60;99.90
17815;DHT22;9031;50.974;11.330;2023-12-20T01:14:21;5.70;99.90
17815;DHT22;9031;50.974;11.330;2023-12-20T01:16:47;5.60;99.90
17815;DHT22;9031;50.974;11.330;2023-12-20T01:19:13;5.60;99.90
17815;DHT22;9031;50.974;11.330;2023-12-20T01:21:39;5.60;99.90
17815;DHT22;9031;50.974;11.330;2023-12-20T01:24:05;5.60;99.90
17815;DHT22;9031;50.974;11.330;2023-12-20T01:26:30;5.60;99.90
17815;DHT22;9031;50.974;11.330;2023-12-20T01:28:56;5.60;99.90
17815;DHT22;9031;50.974;11.330;2023-12-20T01:31:21;5.50;99.90
17815;DHT22;9031;50.974;11.330;2023-12-20T01:33:47;5.50;99.90
17815;DHT22;9031;50.974;11.330;2023-12-20T01:36:12;5.60;99.90
17815;DHT22;9031;50.974;11.330;2023-12-20T01:38:38;5.60;99.90
17815;DHT22;9031;50.974;11.330;2023-12-20T01:41:04;5.60;99.90
17815;DHT22;9031;50.974;11.330;2023-12-20T01:43:30;5.60;99.90
17815;DHT22;9031;50.974;11.330;2023-12-20T01:45:58;5.50;99.90
17815;DHT22;9031;50.974;11.330;2023-12-20T01:48:25;5.50;99.90
17815;DHT22;9031;50.974;11.330;2023-12-20T01:50:51;5.60;99.90
17815;DHT22;9031;50.974;11.330;2023-12-20T01:53:19;5.50;99.90
17815;DHT22;9031;50.974;11.330;2023-12-20T01:55:45;5.50;99.90
17815;DHT22;9031;50.974;11.330;2023-12-20T01:58:13;5.50;99.90
17815;DHT22;9031;50.974;11.330;2023-12-20T02:00:39;5.40;99.90
17815;DHT22;9031;50.974;11.330;2023-12-20T02:03:05;5.40;99.90
17815;DHT22;9031;50.974;11.330;2023-12-20T02:05:31;5.50;99.90
17815;DHT22;9031;50.974;11.330;2023-12-20T02:07:57;5.40;99.90
17815;DHT22;9031;50.974;11.330;2023-12-20T02:10:23;5.40;99.90
17815;DHT22;9031;50.974;11.330;2023-12-20T02:12:49;5.40;99.90
17815;DHT22;9031;50.974;11.330;2023-12-20T02:15:15;5.40;99.90
17815;DHT22;9031;50.974;11.330;2023-12-20T02:17:40;5.40;99.90
17815;DHT22;9031;50.974;11.330;2023-12-20T02:20:06;5.30;99.90
17815;DHT22;9031;50.974;11.330;2023-12-20T02:22:32;5.30;99.90
17815;DHT22;9031;50.974;11.330;2023-12-20T02:24:57;5.30;99.90
17815;DHT22;9031;50.974;11.330;2023-12-20T02:27:23;5.40;99.90
17815;DHT22;9031;50.974;11.330;2023-12-20T02:29:49;5.40;99.90
17815;DHT22;9031;50.974;11.330;2023-12-20T02:32:16;5.30;99.90
17815;DHT22;9031;50.974;11.330;2023-12-20T02:34:42;5.30;99.90
17815;DHT22;9031;50.974;11.330;2023-12-20T02:37:07;5.40;99.90
17815;DHT22;9031;50.974;11.330;2023-12-20T02:39:33;5.40;99.90
17815;DHT22;9031;50.974;11.330;2023-12-20T02:41:58;5.30;99.90
17815;DHT22;9031;50.974;11.330;2023-12-20T02:44:24;5.40;99.90
17815;DHT22;9031;50.974;11.330;2023-12-20T02:46:50;5.40;99.90
17815;DHT22;9031;50.974;11.330;2023-12-20T02:49:15;5.30;99.90
17815;DHT22;9031;50.974;11.330;2023-12-20T02:51:41;5.40;99.90
17815;DHT22;9031;50.974;11.330;2023-12-20T02:54:06;5.30;99.90
17815;DHT22;9031;50.974;11.330;2023-12-20T02:56:32;5.40;99.90
17815;DHT22;9031;50.974;11.330;2023-12-20T02:58:58;5.30;99.90
17815;DHT22;9031;50.974;11.330;2023-12-20T03:01:24;5.40;99.90
17815;DHT22;9031;50.974;11.330;2023-12-20T03:03:49;5.40;99.90
17815;DHT22;9031;50.974;11.330;2023-12-20T03:06:18;5.30;99.90
17815;DHT22;9031;50.974;11.330;2023-12-20T03:08:44;5.40;99.90
17815;DHT22;9031;50.974;11.330;2023-12-20T03:11:10;5.40;99.90
17815;DHT22;9031;50.974;11.330;2023-12-20T03:13:35;5.50;99.90
17815;DHT22;9031;50.974;11.330;2023-12-20T03:16:01;5.50;99.90
17815;DHT22;9031;50.974;11.330;2023-12-20T03:18:26;5.40;99.90
17815;DHT22;9031;50.974;11.330;2023-12-20T03:20:53;5.50;99.90
17815;DHT22;9031;50.974;11.330;2023-12-20T03:23:19;5.50;99.90
17815;DHT22;9031;50.974;11.330;2023-12-20T03:25:44;5.50;99.90
17815;DHT22;9031;50.974;11.330;2023-12-20T03:28:10;5.60;99.90
17815;DHT22;9031;50.974;11.330;2023-12-20T03:30:35;5.50;99.90
17815;DHT22;9031;50.974;11.330;2023-12-20T03:33:01;5.50;99.90
17815;DHT22;9031;50.974;11.330;2023-12-20T03:35:26;5.50;99.90
17815;DHT22;9031;50.974;11.330;2023-12-20T03:37:52;5.60;99.90
17815;DHT22;9031;50.974;11.330;2023-12-20T03:40:17;5.50;99.90
17815;DHT22;9031;50.974;11.330;2023-12-20T03:42:44;5.60;99.90
17815;DHT22;9031;50.974;11.330;2023-12-20T03:45:09;5.50;99.90
17815;DHT22;9031;50.974;11.330;2023-12-20T03:47:35;5.50;99.90
17815;DHT22;9031;50.974;11.330;2023-12-20T03:50:00;5.60;99.90
17815;DHT22;9031;50.974;11.330;2023-12-20T03:52:26;5.70;99.90
17815;DHT22;9031;50.974;11.330;2023-12-20T03:54:51;5.70;99.90
17815;DHT22;9031;50.974;11.330;2023-12-20T03:57:17;5.70;99.90
17815;DHT22;9031;50.974;11.330;2023-12-20T03:59:42;5.60;99.90
17815;DHT22;9031;50.974;11.330;2023-12-20T04:02:07;5.50;99.90
17815;DHT22;9031;50.974;11.330;2023-12-20T04:04:33;5.50;99.90
17815;DHT22;9031;50.974;11.330;2023-12-20T04:06:58;5.50;99.90
17815;DHT22;9031;50.974;11.330;2023-12-20T04:09:24;5.60;99.90
17815;DHT22;9031;50.974;11.330;2023-12-20T04:11:49;5.60;99.90
17815;DHT22;9031;50.974;11.330;2023-12-20T04:14:15;5.60;99.90
17815;DHT22;9031;50.974;11.330;2023-12-20T04:16:40;5.60;99.90
17815;DHT22;9031;50.974;11.330;2023-12-20T04:19:06;5.70;99.90
17815;DHT22;9031;50.974;11.330;2023-12-20T04:21:31;5.70;99.90
17815;DHT22;9031;50.974;11.330;2023-12-20T04:23:57;5.70;99.90
17815;DHT22;9031;50.974;11.330;2023-12-20T04:26:22;5.70;99.90
17815;DHT22;9031;50.974;11.330;2023-12-20T04:28:48;5.60;99.90
17815;DHT22;9031;50.974;11.330;2023-12-20T04:31:13;5.60;99.90
17815;DHT22;9031;50.974;11.330;2023-12-20T04:33:39;5.60;99.90
17815;DHT22;9031;50.974;11.330;2023-12-20T04:36:05;5.60;99.90
17815;DHT22;9031;50.974;11.330;2023-12-20T04:38:30;5.60;99.90
17815;DHT22;9031;50.974;11.330;2023-12-20T04:40:56;5.60;99.90
17815;DHT22;9031;50.974;11.330;2023-12-20T04:43:21;5.60;99.90
17815;DHT22;9031;50.974;11.330;2023-12-20T04:45:47;5.50;99.90
17815;DHT22;9031;50.974;11.330;2023-12-20T04:48:12;5.50;99.90
17815;DHT22;9031;50.974;11.330;2023-12-20T04:50:38;5.50;99.90
17815;DHT22;9031;50.974;11.330;2023-12-20T04:53:03;5.50;99.90
17815;DHT22;9031;50.974;11.330;2023-12-20T04:55:29;5.50;99.90
17815;DHT22;9031;50.974;11.330;2023-12-20T04:57:55;5.50;99.90
17815;DHT22;9031;50.974;11.330;2023-12-20T05:00:21;5.50;99.90
17815;DHT22;9031;50.974;11.330;2023-12-20T05:02:47;5.40;99.90
17815;DHT22;9031;50.974;11.330;2023-12-20T05:05:12;5.40;99.90
17815;DHT22;9031;50.974;11.330;2023-12-20T05:07:40;5.30;99.90
17815;DHT22;9031;50.974;11.330;2023-12-20T05:10:06;5.20;99.90
17815;DHT22;9031;50.974;11.330;2023-12-20T05:12:33;5.10;99.90
17815;DHT22;9031;50.974;11.330;2023-12-20T05:14:59;5.10;99.90
17815;DHT22;9031;50.974;11.330;2023-12-20T05:17:25;5.10;99.90
17815;DHT22;9031;50.974;11.330;2023-12-20T05:19:50;5.10;99.90
17815;DHT22;9031;50.974;11.330;2023-12-20T05:22:15;5.20;99.90
17815;DHT22;9031;50.974;11.330;2023-12-20T05:24:41;5.20;99.90
17815;DHT22;9031;50.974;11.330;2023-12-20T05:27:07;5.20;99.90
17815;DHT22;9031;50.974;11.330;2023-12-20T05:29:32;5.20;99.90
17815;DHT22;9031;50.974;11.330;2023-12-20T05:31:58;5.30;99.90
17815;DHT22;9031;50.974;11.330;2023-12-20T05:34:24;5.30;99.90
17815;DHT22;9031;50.974;11.330;2023-12-20T05:36:49;5.30;99.90
17815;DHT22;9031;50.974;11.330;2023-12-20T05:39:15;5.30;99.90
17815;DHT22;9031;50.974;11.330;2023-12-20T05:41:40;5.40;99.90
17815;DHT22;9031;50.974;11.330;2023-12-20T05:44:06;5.40;99.90
17815;DHT22;9031;50.974;11.330;2023-12-20T05:46:31;5.40;99.90
17815;DHT22;9031;50.974;11.330;2023-12-20T05:48:57;5.50;99.90
17815;DHT22;9031;50.974;11.330;2023-12-20T05:51:22;5.60;99.90
17815;DHT22;9031;50.974;11.330;2023-12-20T05:53:48;5.60;99.90
17815;DHT22;9031;50.974;11.330;2023-12-20T05:56:15;5.60;99.90
17815;DHT22;9031;50.974;11.330;2023-12-20T05:58:41;5.60;99.90
17815;DHT22;9031;50.974;11.330;2023-12-20T06:01:06;5.60;99.90
17815;DHT22;9031;50.974;11.330;2023-12-20T06:03:33;5.70;99.90
17815;DHT22;9031;50.974;11.330;2023-12-20T06:05:59;5.70;99.90
17815;DHT22;9031;50.974;11.330;2023-12-20T06:08:26;5.70;99.90
17815;DHT22;9031;50.974;11.330;2023-12-20T06:10:51;5.70;99.90
17815;DHT22;9031;50.974;11.330;2023-12-20T06:13:17;5.70;99.90
17815;DHT22;9031;50.974;11.330;2023-12-20T06:15:42;5.70;99.90
17815;DHT22;9031;50.974;11.330;2023-12-20T06:18:08;5.80;99.90
17815;DHT22;9031;50.974;11.330;2023-12-20T06:20:33;5.80;99.90
17815;DHT22;9031;50.974;11.330;2023-12-20T06:22:59;5.80;99.90
17815;DHT22;9031;50.974;11.330;2023-12-20T06:25:25;5.80;99.90
17815;DHT22;9031;50.974;11.330;2023-12-20T06:27:50;5.80;99.90
17815;DHT22;9031;50.974;11.330;2023-12-20T06:30:16;5.80;99.90
17815;DHT22;9031;50.974;11.330;2023-12-20T06:32:42;5.80;99.90
17815;DHT22;9031;50.974;11.330;2023-12-20T06:35:08;5.90;99.90
17815;DHT22;9031;50.974;11.330;2023-12-20T06:37:34;5.80;99.90
17815;DHT22;9031;50.974;11.330;2023-12-20T06:40:00;5.80;99.90
17815;DHT22;9031;50.974;11.330;2023-12-20T06:42:25;5.70;99.90
17815;DHT22;9031;50.974;11.330;2023-12-20T06:44:51;5.60;99.90
17815;DHT22;9031;50.974;11.330;2023-12-20T06:47:16;5.50;99.90
17815;DHT22;9031;50.974;11.330;2023-12-20T06:49:42;5.40;99.90
17815;DHT22;9031;50.974;11.330;2023-12-20T06:52:07;5.40;99.90
17815;DHT22;9031;50.974;11.330;2023-12-20T06:54:33;5.40;99.90
17815;DHT22;9031;50.974;11.330;2023-12-20T06:57:00;5.30;99.90
17815;DHT22;9031;50.974;11.330;2023-12-20T06:59:25;5.30;99.90
17815;DHT22;9031;50.974;11.330;2023-12-20T07:01:51;5.20;99.90
17815;DHT22;9031;50.974;11.330;2023-12-20T07:04:17;5.20;99.90
17815;DHT22;9031;50.974;11.330;2023-12-20T07:06:46;5.10;99.90
17815;DHT22;9031;50.974;11.330;2023-12-20T07:09:11;5.20;99.90
17815;DHT22;9031;50.974;11.330;2023-12-20T07:11:38;5.10;99.90
17815;DHT22;9031;50.974;11.330;2023-12-20T07:14:04;5.10;99.90
17815;DHT22;9031;50.974;11.330;2023-12-20T07:16:29;5.10;99.90
17815;DHT22;9031;50.974;11.330;2023-12-20T07:18:55;5.20;99.90
17815;DHT22;9031;50.974;11.330;2023-12-20T07:21:21;5.10;99.90
17815;DHT22;9031;50.974;11.330;2023-12-20T07:23:47;5.10;99.90
17815;DHT22;9031;50.974;11.330;2023-12-20T07:26:12;5.20;99.90
17815;DHT22;9031;50.974;11.330;2023-12-20T07:28:38;5.20;99.90
17815;DHT22;9031;50.974;11.330;2023-12-20T07:31:03;5.20;99.90
17815;DHT22;9031;50.974;11.330;2023-12-20T07:33:29;5.20;99.90
17815;DHT22;9031;50.974;11.330;2023-12-20T07:35:54;5.10;99.90
17815;DHT22;9031;50.974;11.330;2023-12-20T07:38:20;5.20;99.90
17815;DHT22;9031;50.974;11.330;2023-12-20T07:40:45;5.10;99.90
17815;DHT22;9031;50.974;11.330;2023-12-20T07:43:10;5.10;99.90
17815;DHT22;9031;50.974;11.330;2023-12-20T07:45:36;5.10;99.90
17815;DHT22;9031;50.974;11.330;2023-12-20T07:48:01;5.10;99.90
17815;DHT22;9031;50.974;11.330;2023-12-20T07:50:27;5.20;99.90
17815;DHT22;9031;50.974;11.330;2023-12-20T07:52:53;5.20;99.90
17815;DHT22;9031;50.974;11.330;2023-12-20T07:55:18;5.20;99.90
17815;DHT22;9031;50.974;11.330;2023-12-20T07:57:44;5.30;99.90
17815;DHT22;9031;50.974;11.330;2023-12-20T08:00:10;5.30;99.90
17815;DHT22;9031;50.974;11.330;2023-12-20T08:02:35;5.40;99.90
17815;DHT22;9031;50.974;11.330;2023-12-20T08:05:01;5.60;99.90
17815;DHT22;9031;50.974;11.330;2023-12-20T08:07:26;5.60;99.90
17815;DHT22;9031;50.974;11.330;2023-12-20T08:09:52;5.70;99.90
17815;DHT22;9031;50.974;11.330;2023-12-20T08:12:18;5.80;99.90
17815;DHT22;9031;50.974;11.330;2023-12-20T08:14:43;5.80;99.90
17815;DHT22;9031;50.974;11.330;2023-12-20T08:17:09;5.80;99.90
17815;DHT22;9031;50.974;11.330;2023-12-20T08:19:34;5.90;99.90
17815;DHT22;9031;50.974;11.330;2023-12-20T08:22:00;5.90;99.90
17815;DHT22;9031;50.974;11.330;2023-12-20T08:24:25;5.90;99.90
17815;DHT22;9031;50.974;11.330;2023-12-20T08:26:51;6.00;99.90
17815;DHT22;9031;50.974;11.330;2023-12-20T08:29:16;6.00;99.90
17815;DHT22;9031;50.974;11.330;2023-12-20T08:31:42;6.00;99.90
17815;DHT22;9031;50.974;11.330;2023-12-20T08:34:07;5.90;99.90
17815;DHT22;9031;50.974;11.330;2023-12-20T08:36:32;5.90;99.90
17815;DHT22;9031;50.974;11.330;2023-12-20T08:38:58;5.80;99.90
17815;DHT22;9031;50.974;11.330;2023-12-20T08:41:26;5.80;99.90
17815;DHT22;9031;50.974;11.330;2023-12-20T08:43:51;5.80;99.90
17815;DHT22;9031;50.974;11.330;2023-12-20T08:46:16;5.90;99.90
17815;DHT22;9031;50.974;11.330;2023-12-20T08:48:42;6.20;99.90
17815;DHT22;9031;50.974;11.330;2023-12-20T08:51:07;6.50;99.90
17815;DHT22;9031;50.974;11.330;2023-12-20T08:53:34;6.70;99.90
17815;DHT22;9031;50.974;11.330;2023-12-20T08:55:59;6.50;99.90
17815;DHT22;9031;50.974;11.330;2023-12-20T08:58:27;6.50;99.90
17815;DHT22;9031;50.974;11.330;2023-12-20T09:00:53;6.50;99.90
17815;DHT22;9031;50.974;11.330;2023-12-20T09:03:18;6.60;99.90
17815;DHT22;9031;50.974;11.330;2023-12-20T09:05:44;6.90;99.90
17815;DHT22;9031;50.974;11.330;2023-12-20T09:08:09;7.00;99.90
17815;DHT22;9031;50.974;11.330;2023-12-20T09:10:36;7.00;99.90
17815;DHT22;9031;50.974;11.330;2023-12-20T09:13:02;7.30;99.90
17815;DHT22;9031;50.974;11.330;2023-12-20T09:15:28;7.30;99.90
17815;DHT22;9031;50.974;11.330;2023-12-20T09:17:55;7.50;99.90
17815;DHT22;9031;50.974;11.330;2023-12-20T09:20:21;7.70;99.90
17815;DHT22;9031;50.974;11.330;2023-12-20T09:22:48;8.50;99.90
17815;DHT22;9031;50.974;11.330;2023-12-20T09:25:14;9.40;99.90
17815;DHT22;9031;50.974;11.330;2023-12-20T09:27:41;10.20;99.90
17815;DHT22;9031;50.974;11.330;2023-12-20T09:30:07;8.40;99.90
17815;DHT22;9031;50.974;11.330;2023-12-20T09:32:32;7.20;99.90
17815;DHT22;9031;50.974;11.330;2023-12-20T09:34:58;6.80;99.90
17815;DHT22;9031;50.974;11.330;2023-12-20T09:37:26;6.70;99.90
17815;DHT22;9031;50.974;11.330;2023-12-20T09:39:52;6.80;99.90
17815;DHT22;9031;50.974;11.330;2023-12-20T09:42:24;7.40;99.90
17815;DHT22;9031;50.974;11.330;2023-12-20T09:44:51;7.80;99.90
17815;DHT22;9031;50.974;11.330;2023-12-20T09:47:20;8.70;99.90
17815;DHT22;9031;50.974;11.330;2023-12-20T09:49:48;7.90;99.90
17815;DHT22;9031;50.974;11.330;2023-12-20T09:52:14;7.50;99.90
17815;DHT22;9031;50.974;11.330;2023-12-20T09:54:41;7.20;99.90
17815;DHT22;9031;50.974;11.330;2023-12-20T09:57:09;7.00;99.90
17815;DHT22;9031;50.974;11.330;2023-12-20T09:59:34;6.90;99.90
17815;DHT22;9031;50.974;11.330;2023-12-20T10:02:01;6.90;99.90
17815;DHT22;9031;50.974;11.330;2023-12-20T10:04:32;6.90;99.90
17815;DHT22;9031;50.974;11.330;2023-12-20T10:07:02;7.00;99.90
17815;DHT22;9031;50.974;11.330;2023-12-20T10:09:31;6.90;99.90
17815;DHT22;9031;50.974;11.330;2023-12-20T10:11:57;6.80;99.90
17815;DHT22;9031;50.974;11.330;2023-12-20T10:14:23;6.70;99.90
17815;DHT22;9031;50.974;11.330;2023-12-20T10:16:49;6.70;99.90
17815;DHT22;9031;50.974;11.330;2023-12-20T10:19:17;6.70;99.90
17815;DHT22;9031;50.974;11.330;2023-12-20T10:21:43;6.90;99.90
17815;DHT22;9031;50.974;11.330;2023-12-20T10:24:17;6.80;99.90
17815;DHT22;9031;50.974;11.330;2023-12-20T10:26:42;6.90;99.90
17815;DHT22;9031;50.974;11.330;2023-12-20T10:29:08;6.90;99.90
17815;DHT22;9031;50.974;11.330;2023-12-20T10:31:34;7.00;99.90
17815;DHT22;9031;50.974;11.330;2023-12-20T10:34:01;7.10;99.90
17815;DHT22;9031;50.974;11.330;2023-12-20T10:36:29;6.90;99.90
17815;DHT22;9031;50.974;11.330;2023-12-20T10:38:56;7.00;99.90
17815;DHT22;9031;50.974;11.330;2023-12-20T10:41:42;7.00;99.90
17815;DHT22;9031;50.974;11.330;2023-12-20T10:44:09;7.00;99.90
17815;DHT22;9031;50.974;11.330;2023-12-20T10:46:36;7.00;99.90
17815;DHT22;9031;50.974;11.330;2023-12-20T10:49:03;7.00;99.90
17815;DHT22;9031;50.974;11.330;2023-12-20T10:51:30;7.00;99.90
17815;DHT22;9031;50.974;11.330;2023-12-20T10:53:56;7.10;99.90
17815;DHT22;9031;50.974;11.330;2023-12-20T10:56:22;7.10;99.90
17815;DHT22;9031;50.974;11.330;2023-12-20T10:58:51;7.10;99.90
17815;DHT22;9031;50.974;11.330;2023-12-20T11:01:18;7.10;99.90
17815;DHT22;9031;50.974;11.330;2023-12-20T11:03:51;7.10;99.90
17815;DHT22;9031;50.974;11.330;2023-12-20T11:11:52;7.00;99.90
17815;DHT22;9031;50.974;11.330;2023-12-20T11:14:25;7.20;99.90
17815;DHT22;9031;50.974;11.330;2023-12-20T11:17:08;7.10;99.90
17815;DHT22;9031;50.974;11.330;2023-12-20T11:20:04;7.10;99.90
17815;DHT22;9031;50.974;11.330;2023-12-20T11:22:32;7.20;99.90
17815;DHT22;9031;50.974;11.330;2023-12-20T11:25:06;7.20;99.90
17815;DHT22;9031;50.974;11.330;2023-12-20T11:27:34;7.50;99.90
17815;DHT22;9031;50.974;11.330;2023-12-20T11:29:59;7.70;99.90
17815;DHT22;9031;50.974;11.330;2023-12-20T11:32:28;7.60;99.90
17815;DHT22;9031;50.974;11.330;2023-12-20T11:37:40;7.30;99.90
17815;DHT22;9031;50.974;11.330;2023-12-20T11:40:12;7.30;99.90
17815;DHT22;9031;50.974;11.330;2023-12-20T11:42:43;7.20;99.90
17815;DHT22;9031;50.974;11.330;2023-12-20T11:45:20;7.50;99.90
17815;DHT22;9031;50.974;11.330;2023-12-20T11:47:48;7.90;99.90
17815;DHT22;9031;50.974;11.330;2023-12-20T11:50:17;7.90;99.90
17815;DHT22;9031;50.974;11.330;2023-12-20T11:52:43;7.80;99.90
17815;DHT22;9031;50.974;11.330;2023-12-20T11:55:08;7.70;99.90
17815;DHT22;9031;50.974;11.330;2023-12-20T11:57:35;7.50;99.90
17815;DHT22;9031;50.974;11.330;2023-12-20T12:00:02;7.40;99.90
17815;DHT22;9031;50.974;11.330;2023-12-20T12:02:28;7.40;99.90
17815;DHT22;9031;50.974;11.330;2023-12-20T12:04:53;7.50;99.90
17815;DHT22;9031;50.974;11.330;2023-12-20T12:07:19;7.50;99.90
17815;DHT22;9031;50.974;11.330;2023-12-20T12:09:45;7.60;99.90
17815;DHT22;9031;50.974;11.330;2023-12-20T12:12:12;7.70;99.90
17815;DHT22;9031;50.974;11.330;2023-12-20T12:14:38;7.80;99.90
17815;DHT22;9031;50.974;11.330;2023-12-20T12:17:13;7.70;99.90
17815;DHT22;9031;50.974;11.330;2023-12-20T12:19:39;7.70;99.90
17815;DHT22;9031;50.974;11.330;2023-12-20T12:22:13;7.80;99.90
17815;DHT22;9031;50.974;11.330;2023-12-20T12:24:46;7.80;99.90
17815;DHT22;9031;50.974;11.330;2023-12-20T12:27:13;7.80;99.90
17815;DHT22;9031;50.974;11.330;2023-12-20T12:29:38;7.80;99.90
17815;DHT22;9031;50.974;11.330;2023-12-20T12:32:08;7.70;99.90
17815;DHT22;9031;50.974;11.330;2023-12-20T12:34:34;7.50;99.90
17815;DHT22;9031;50.974;11.330;2023-12-20T12:37:00;7.50;99.90
17815;DHT22;9031;50.974;11.330;2023-12-20T12:39:26;7.40;99.90
17815;DHT22;9031;50.974;11.330;2023-12-20T12:41:52;7.50;99.90
17815;DHT22;9031;50.974;11.330;2023-12-20T12:44:18;7.40;99.90
17815;DHT22;9031;50.974;11.330;2023-12-20T12:46:47;7.30;99.90
17815;DHT22;9031;50.974;11.330;2023-12-20T12:49:15;7.20;99.90
17815;DHT22;9031;50.974;11.330;2023-12-20T12:51:40;7.20;99.90
17815;DHT22;9031;50.974;11.330;2023-12-20T12:54:06;7.30;99.90
17815;DHT22;9031;50.974;11.330;2023-12-20T12:56:32;7.30;99.90
17815;DHT22;9031;50.974;11.330;2023-12-20T12:58:57;7.40;99.90
17815;DHT22;9031;50.974;11.330;2023-12-20T13:01:23;7.60;99.90
17815;DHT22;9031;50.974;11.330;2023-12-20T13:03:49;7.60;99.90
17815;DHT22;9031;50.974;11.330;2023-12-20T13:06:14;7.40;99.90
17815;DHT22;9031;50.974;11.330;2023-12-20T13:08:40;7.10;99.90
17815;DHT22;9031;50.974;11.330;2023-12-20T13:11:05;6.90;99.90
17815;DHT22;9031;50.974;11.330;2023-12-20T13:13:31;6.80;99.90
17815;DHT22;9031;50.974;11.330;2023-12-20T13:15:56;6.80;99.90
17815;DHT22;9031;50.974;11.330;2023-12-20T13:18:22;6.70;99.90
17815;DHT22;9031;50.974;11.330;2023-12-20T13:20:48;6.60;99.90
17815;DHT22;9031;50.974;11.330;2023-12-20T13:23:14;6.70;99.90
17815;DHT22;9031;50.974;11.330;2023-12-20T13:25:41;6.80;99.90
17815;DHT22;9031;50.974;11.330;2023-12-20T13:28:06;6.90;99.90
17815;DHT22;9031;50.974;11.330;2023-12-20T13:30:32;6.90;99.90
17815;DHT22;9031;50.974;11.330;2023-12-20T13:32:57;7.10;99.90
17815;DHT22;9031;50.974;11.330;2023-12-20T13:35:23;7.30;99.90
17815;DHT22;9031;50.974;11.330;2023-12-20T13:37:48;7.20;99.90
17815;DHT22;9031;50.974;11.330;2023-12-20T13:40:14;7.10;99.90
17815;DHT22;9031;50.974;11.330;2023-12-20T13:42:40;7.20;99.90
17815;DHT22;9031;50.974;11.330;2023-12-20T13:45:06;7.20;99.90
17815;DHT22;9031;50.974;11.330;2023-12-20T13:47:32;7.00;99.90
17815;DHT22;9031;50.974;11.330;2023-12-20T13:49:58;6.90;99.90
17815;DHT22;9031;50.974;11.330;2023-12-20T13:52:23;6.90;99.90
17815;DHT22;9031;50.974;11.330;2023-12-20T13:54:49;6.80;99.90
17815;DHT22;9031;50.974;11.330;2023-12-20T13:57:15;6.90;99.90
17815;DHT22;9031;50.974;11.330;2023-12-20T13:59:40;6.80;99.90
17815;DHT22;9031;50.974;11.330;2023-12-20T14:02:06;6.70;99.90
17815;DHT22;9031;50.974;11.330;2023-12-20T14:04:31;6.70;99.90
17815;DHT22;9031;50.974;11.330;2023-12-20T14:06:57;6.80;99.90
17815;DHT22;9031;50.974;11.330;2023-12-20T14:09:23;6.70;99.90
17815;DHT22;9031;50.974;11.330;2023-12-20T14:11:48;6.60;99.90
17815;DHT22;9031;50.974;11.330;2023-12-20T14:14:14;6.50;99.90
17815;DHT22;9031;50.974;11.330;2023-12-20T14:16:39;6.50;99.90
17815;DHT22;9031;50.974;11.330;2023-12-20T14:19:05;6.50;99.90
17815;DHT22;9031;50.974;11.330;2023-12-20T14:21:33;6.50;99.90
17815;DHT22;9031;50.974;11.330;2023-12-20T14:23:58;6.40;99.90
17815;DHT22;9031;50.974;11.330;2023-12-20T14:26:24;6.30;99.90
17815;DHT22;9031;50.974;11.330;2023-12-20T14:28:49;6.30;99.90
17815;DHT22;9031;50.974;11.330;2023-12-20T14:31:15;6.30;99.90
17815;DHT22;9031;50.974;11.330;2023-12-20T14:33:40;6.30;99.90
17815;DHT22;9031;50.974;11.330;2023-12-20T14:36:07;6.30;99.90
17815;DHT22;9031;50.974;11.330;2023-12-20T14:38:33;6.30;99.90
17815;DHT22;9031;50.974;11.330;2023-12-20T14:40:58;6.30;99.90
17815;DHT22;9031;50.974;11.330;2023-12-20T14:43:25;6.30;99.90
17815;DHT22;9031;50.974;11.330;2023-12-20T14:45:51;6.30;99.90
17815;DHT22;9031;50.974;11.330;2023-12-20T14:48:17;6.30;99.90
17815;DHT22;9031;50.974;11.330;2023-12-20T14:50:43;6.30;99.90
17815;DHT22;9031;50.974;11.330;2023-12-20T14:53:09;6.40;99.90
17815;DHT22;9031;50.974;11.330;2023-12-20T14:55:35;6.40;99.90
17815;DHT22;9031;50.974;11.330;2023-12-20T14:58:01;6.30;99.90
17815;DHT22;9031;50.974;11.330;2023-12-20T15:00:26;6.30;99.90
17815;DHT22;9031;50.974;11.330;2023-12-20T15:02:52;6.30;99.90
17815;DHT22;9031;50.974;11.330;2023-12-20T15:05:21;6.30;99.90
17815;DHT22;9031;50.974;11.330;2023-12-20T15:07:46;6.30;99.90
17815;DHT22;9031;50.974;11.330;2023-12-20T15:10:15;6.30;99.90
17815;DHT22;9031;50.974;11.330;2023-12-20T15:12:42;6.30;99.90
17815;DHT22;9031;50.974;11.330;2023-12-20T15:15:08;6.30;99.90
17815;DHT22;9031;50.974;11.330;2023-12-20T15:17:35;6.20;99.90
17815;DHT22;9031;50.974;11.330;2023-12-20T15:20:01;6.20;99.90
17815;DHT22;9031;50.974;11.330;2023-12-20T15:22:27;6.20;99.90
17815;DHT22;9031;50.974;11.330;2023-12-20T15:24:53;6.30;99.90
17815;DHT22;9031;50.974;11.330;2023-12-20T15:27:20;6.20;99.90
17815;DHT22;9031;50.974;11.330;2023-12-20T15:29:45;6.30;99.90
17815;DHT22;9031;50.974;11.330;2023-12-20T15:32:11;6.30;99.90
17815;DHT22;9031;50.974;11.330;2023-12-20T15:34:36;6.20;99.90
17815;DHT22;9031;50.974;11.330;2023-12-20T15:37:02;6.30;99.90
17815;DHT22;9031;50.974;11.330;2023-12-20T15:39:28;6.20;99.90
17815;DHT22;9031;50.974;11.330;2023-12-20T15:41:53;6.20;99.90
17815;DHT22;9031;50.974;11.330;2023-12-20T15:44:19;6.20;99.90
17815;DHT22;9031;50.974;11.330;2023-12-20T15:46:44;6.20;99.90